This is the latest recevied weather packets stored in our database for station/object ALANSN-2. If no packets are shown the sender has not sent any weather packets the latest 10 day(s).
| Time | Temp. | Humidity | Pressure | Rain* | Wind** | Luminosity | Snow |
|---|---|---|---|---|---|---|---|
| 1788010919 | 21.11° C | 86% | 1029.1 hPa | 0 mm | - | 168 W/m² | - |
| 1788010619 | 21.11° C | 85% | 1029.1 hPa | 0 mm | - | 318 W/m² | - |
| 1788010320 | 21.11° C | 85% | 1029.2 hPa | 0 mm | - | 280 W/m² | - |
| 1788010018 | 20.56° C | 85% | 1029.1 hPa | 0 mm | - | 108 W/m² | - |
| 1788009721 | 20.56° C | 86% | 1029.3 hPa | 0 mm | - | 82 W/m² | - |
| 1788009417 | 20.56° C | 85% | 1029.2 hPa | 0 mm | - | 68 W/m² | - |
| 1788009118 | 20.56° C | 87% | 1029.2 hPa | 0 mm | - | 69 W/m² | - |
| 1788008821 | 20.56° C | 85% | 1029.4 hPa | 0 mm | - | 78 W/m² | - |
| 1788008521 | 20° C | 86% | 1029.2 hPa | 0 mm | - | 80 W/m² | - |
| 1788007920 | 18.89° C | 91% | 1029.4 hPa | 0 mm | - | 52 W/m² | - |
| 1788007620 | 18.33° C | 93% | 1029.4 hPa | 0 mm | - | 47 W/m² | - |
| 1788007320 | 18.33° C | 94% | 1029.5 hPa | 0 mm | - | 38 W/m² | - |
| 1788007021 | 17.78° C | 94% | 1029.5 hPa | 0 mm | - | 39 W/m² | - |
| 1788006720 | 17.78° C | 95% | 1029.5 hPa | 0 mm | - | 46 W/m² | - |
| 1788006420 | 16.67° C | 97% | 1029.5 hPa | 0 mm | - | 48 W/m² | - |
| 1788006119 | 16.67° C | 97% | 1029.5 hPa | 0 mm | - | 48 W/m² | - |
| 1788005820 | 16.67° C | 98% | 1029.2 hPa | 0 mm | - | 39 W/m² | - |
| 1788005520 | 16.11° C | 98% | 1029.5 hPa | 0 mm | - | 29 W/m² | - |
| 1788005219 | 16.11° C | 98% | 1029.5 hPa | 0 mm | - | 29 W/m² | - |
| 1788004920 | 16.11° C | 99% | 1029.6 hPa | 0 mm | - | 30 W/m² | - |
| 1788004618 | 15.56° C | 99% | 1029.4 hPa | 0 mm | - | 23 W/m² | - |
| 1788004320 | 15.56° C | 99% | 1029.4 hPa | 0 mm | - | 23 W/m² | - |
| 1788004020 | 15.56° C | 99% | 1029.6 hPa | 0 mm | - | 22 W/m² | - |
| 1788003717 | 15.56° C | 99% | 1029.4 hPa | 0 mm | - | 15 W/m² | - |
| 1788003420 | 15.56° C | 99% | 1029.4 hPa | 0 mm | - | 15 W/m² | - |
* Rain latest hour (hover to see other rain measurements)
** Current wind speed in m/s (hover to see current wind gust speed)